createdAt,value
2023-05-21T00:01:16.412Z,16.05
2023-05-21T00:04:19.517Z,15.97
2023-05-21T00:07:23.306Z,15.96
2023-05-21T00:10:26.670Z,15.96
2023-05-21T00:13:29.235Z,15.92
2023-05-21T00:16:32.067Z,15.88
2023-05-21T00:19:34.629Z,15.87
2023-05-21T00:22:37.572Z,15.75
2023-05-21T00:25:40.128Z,15.85
2023-05-21T00:28:43.000Z,15.81
2023-05-21T00:31:45.604Z,15.77
2023-05-21T00:34:48.535Z,15.74
2023-05-21T00:37:52.105Z,15.73
2023-05-21T00:40:55.072Z,15.67
2023-05-21T00:44:00.377Z,15.54
2023-05-21T00:47:04.321Z,15.63
2023-05-21T00:50:08.039Z,15.63
2023-05-21T00:53:11.123Z,15.59
2023-05-21T00:56:13.833Z,15.57
2023-05-21T00:59:16.999Z,15.57
2023-05-21T01:02:19.915Z,15.58
2023-05-21T01:05:23.139Z,15.53
2023-05-21T01:08:27.377Z,15.46
2023-05-21T01:11:43.850Z,15.44
2023-05-21T01:14:46.498Z,15.26
2023-05-21T01:17:49.684Z,15.32
2023-05-21T01:20:53.108Z,15.25
2023-05-21T01:23:56.567Z,15.26
2023-05-21T01:27:00.631Z,15.25
2023-05-21T01:30:03.915Z,15.22
2023-05-21T01:33:17.520Z,15.18
2023-05-21T01:36:26.871Z,15.21
2023-05-21T01:39:38.481Z,15.17
2023-05-21T01:42:44.369Z,15.18
2023-05-21T01:45:47.788Z,15.15
2023-05-21T01:48:51.363Z,15.14
2023-05-21T01:51:54.155Z,15.15
2023-05-21T01:54:57.499Z,15.06
2023-05-21T01:58:02.217Z,14.99
2023-05-21T02:01:05.685Z,14.99
2023-05-21T02:04:08.767Z,14.94
2023-05-21T02:07:14.407Z,14.96
2023-05-21T02:10:17.819Z,14.94
2023-05-21T02:13:22.330Z,14.90
2023-05-21T02:16:26.603Z,14.90
2023-05-21T02:19:29.570Z,14.84
2023-05-21T02:22:32.542Z,14.79
2023-05-21T02:25:35.364Z,14.82
2023-05-21T02:28:38.705Z,14.79
2023-05-21T02:31:41.615Z,14.82
2023-05-21T02:34:46.438Z,14.78
2023-05-21T02:37:49.125Z,14.79
2023-05-21T02:40:52.169Z,14.77
2023-05-21T02:43:54.894Z,14.71
2023-05-21T02:46:57.950Z,14.70
2023-05-21T02:50:01.838Z,14.70
2023-05-21T02:53:06.321Z,14.67
2023-05-21T02:56:09.363Z,14.66
2023-05-21T02:59:12.471Z,14.67
2023-05-21T03:02:15.236Z,14.69
2023-05-21T03:05:18.558Z,14.67
2023-05-21T03:08:21.917Z,14.64
2023-05-21T03:11:24.781Z,14.64
2023-05-21T03:14:29.036Z,14.65
2023-05-21T03:17:32.221Z,14.61
2023-05-21T03:20:35.041Z,14.63
2023-05-21T03:23:38.029Z,14.65
2023-05-21T03:26:40.782Z,14.68
2023-05-21T03:29:43.870Z,14.66
2023-05-21T03:32:47.298Z,14.64
2023-05-21T03:35:50.769Z,14.63
2023-05-21T03:38:53.478Z,14.66
2023-05-21T03:41:56.725Z,14.72
2023-05-21T03:45:00.812Z,14.80
2023-05-21T03:48:05.760Z,14.87
2023-05-21T03:51:09.611Z,14.95
2023-05-21T03:54:12.836Z,15.02
2023-05-21T03:57:15.955Z,15.07
2023-05-21T04:00:21.734Z,15.14
2023-05-21T04:03:24.826Z,15.20
2023-05-21T04:06:28.094Z,15.23
2023-05-21T04:09:31.197Z,15.29
2023-05-21T04:12:33.828Z,15.37
2023-05-21T04:15:38.835Z,15.41
2023-05-21T04:18:43.569Z,15.42
2023-05-21T04:21:48.509Z,15.44
2023-05-21T04:24:51.350Z,15.48
2023-05-21T04:27:54.851Z,15.48
2023-05-21T04:30:59.338Z,15.51
2023-05-21T04:34:02.441Z,15.57
2023-05-21T04:37:05.343Z,15.64
2023-05-21T04:40:09.747Z,15.72
2023-05-21T04:43:12.428Z,15.80
2023-05-21T04:46:15.489Z,15.86
2023-05-21T04:49:18.280Z,15.95
2023-05-21T04:52:21.114Z,16.04
2023-05-21T04:55:23.680Z,16.11
2023-05-21T04:58:28.026Z,16.19
2023-05-21T05:01:32.430Z,16.26
2023-05-21T05:04:37.274Z,16.31
2023-05-21T05:07:40.175Z,16.23
2023-05-21T05:10:43.940Z,16.42
2023-05-21T05:13:46.662Z,16.50
2023-05-21T05:16:50.703Z,16.61
2023-05-21T05:19:53.850Z,16.71
2023-05-21T05:22:56.707Z,16.80
2023-05-21T05:25:59.508Z,16.94
2023-05-21T05:29:03.460Z,17.02
2023-05-21T05:32:06.710Z,17.10
2023-05-21T05:35:10.028Z,17.18
2023-05-21T05:38:13.611Z,17.23
2023-05-21T05:41:17.556Z,17.28
2023-05-21T05:44:20.148Z,17.31
2023-05-21T05:47:23.381Z,17.42
2023-05-21T05:50:25.849Z,17.55
2023-05-21T05:53:29.053Z,17.66
2023-05-21T05:56:32.447Z,17.73
2023-05-21T05:59:36.114Z,17.89
2023-05-21T06:02:38.937Z,17.98
2023-05-21T06:05:42.030Z,18.09
2023-05-21T06:08:45.015Z,18.16
2023-05-21T06:11:48.063Z,18.29
2023-05-21T06:14:51.004Z,18.38
2023-05-21T06:17:55.276Z,18.53
2023-05-21T06:20:58.588Z,18.68
2023-05-21T06:24:02.283Z,18.82
2023-05-21T06:27:05.446Z,18.94
2023-05-21T06:30:09.141Z,19.06
2023-05-21T06:33:12.787Z,19.16
2023-05-21T06:36:16.671Z,19.27
2023-05-21T06:39:20.017Z,19.28
2023-05-21T06:42:24.293Z,19.53
2023-05-21T06:45:27.588Z,19.59
2023-05-21T06:48:32.281Z,19.75
2023-05-21T06:51:35.192Z,19.79
2023-05-21T06:54:38.844Z,19.96
2023-05-21T06:57:41.884Z,20.08
2023-05-21T07:00:45.138Z,20.18
2023-05-21T07:03:48.201Z,20.27
2023-05-21T07:06:52.454Z,20.49
2023-05-21T07:09:55.268Z,20.61
2023-05-21T07:12:58.283Z,20.77
2023-05-21T07:16:01.222Z,20.97
2023-05-21T07:19:05.047Z,21.10
2023-05-21T07:22:07.988Z,21.27
2023-05-21T07:25:11.083Z,21.38
2023-05-21T07:28:13.671Z,21.44
2023-05-21T07:31:16.622Z,21.61
2023-05-21T07:34:20.048Z,21.71
2023-05-21T07:37:22.956Z,21.88
2023-05-21T07:40:25.611Z,22.02
2023-05-21T07:43:28.640Z,22.07
2023-05-21T07:46:31.921Z,22.10
2023-05-21T07:49:35.129Z,22.15
2023-05-21T07:52:38.550Z,22.35
2023-05-21T07:55:47.741Z,22.16
2023-05-21T07:58:50.711Z,22.38
2023-05-21T08:01:53.782Z,22.68
2023-05-21T08:04:56.708Z,22.83
2023-05-21T08:08:00.678Z,22.86
2023-05-21T08:11:04.319Z,23.02
2023-05-21T08:14:07.102Z,23.21
2023-05-21T08:17:11.516Z,23.34
2023-05-21T08:20:15.149Z,23.53
2023-05-21T08:23:18.611Z,23.47
2023-05-21T08:26:21.950Z,23.55
2023-05-21T08:29:25.012Z,23.62
2023-05-21T08:32:28.511Z,23.95
2023-05-21T08:35:31.573Z,24.06
2023-05-21T08:38:35.033Z,24.28
2023-05-21T08:41:39.889Z,24.34
2023-05-21T08:44:44.606Z,24.55
2023-05-21T08:47:48.275Z,24.44
2023-05-21T08:50:55.256Z,24.71
2023-05-21T08:54:00.013Z,24.70
2023-05-21T08:57:03.914Z,24.99
2023-05-21T09:00:07.675Z,25.15
2023-05-21T09:03:11.621Z,25.03
2023-05-21T09:06:15.162Z,25.42
2023-05-21T09:09:26.354Z,25.55
2023-05-21T09:12:29.690Z,25.81
2023-05-21T09:15:33.303Z,26.05
2023-05-21T09:18:36.606Z,26.07
2023-05-21T09:21:39.645Z,26.13
2023-05-21T09:24:44.307Z,26.39
2023-05-21T09:27:46.923Z,26.40
2023-05-21T09:30:53.639Z,26.56
2023-05-21T09:33:56.392Z,26.41
2023-05-21T09:37:01.648Z,26.52
2023-05-21T09:40:15.186Z,26.82
2023-05-21T09:43:21.687Z,26.63
2023-05-21T09:46:26.565Z,26.92
2023-05-21T09:49:30.332Z,26.63
2023-05-21T09:52:36.675Z,26.77
2023-05-21T09:55:40.077Z,26.91
2023-05-21T09:58:43.035Z,27.43
2023-05-21T10:01:46.341Z,27.05
2023-05-21T10:04:50.927Z,27.64
2023-05-21T10:07:59.568Z,28.02
2023-05-21T10:11:05.070Z,27.82
2023-05-21T10:14:10.217Z,27.75
2023-05-21T10:17:13.801Z,27.95
2023-05-21T10:20:16.662Z,28.34
2023-05-21T10:23:20.552Z,28.59
2023-05-21T10:26:24.264Z,28.89
2023-05-21T10:29:27.333Z,28.61
2023-05-21T10:32:30.597Z,29.15
2023-05-21T10:35:34.471Z,28.96
2023-05-21T10:38:38.826Z,29.14
2023-05-21T10:42:13.926Z,29.56
2023-05-21T10:45:34.785Z,29.06
2023-05-21T10:49:08.867Z,29.33
2023-05-21T10:52:25.488Z,29.71
2023-05-21T10:55:50.524Z,29.12
2023-05-21T10:59:18.308Z,29.62
2023-05-21T11:02:21.544Z,29.32
2023-05-21T11:05:52.956Z,29.49
2023-05-21T11:08:56.016Z,29.65
2023-05-21T11:12:00.217Z,29.73
2023-05-21T11:15:03.027Z,29.43
2023-05-21T11:18:05.774Z,29.58
2023-05-21T11:21:12.450Z,29.77
2023-05-21T11:24:19.439Z,29.66
2023-05-21T11:27:34.678Z,29.53
2023-05-21T11:30:39.577Z,29.90
2023-05-21T11:33:43.751Z,30.20
2023-05-21T11:36:48.081Z,30.42
2023-05-21T11:39:51.670Z,30.41
2023-05-21T11:42:55.467Z,30.48
2023-05-21T11:45:59.224Z,30.54
2023-05-21T11:49:03.026Z,30.74
2023-05-21T11:52:07.390Z,30.33
2023-05-21T11:55:11.344Z,30.66
2023-05-21T11:58:16.496Z,30.67
2023-05-21T12:01:26.546Z,30.91
2023-05-21T12:04:33.055Z,30.43
2023-05-21T12:07:35.624Z,30.43
2023-05-21T12:10:39.801Z,29.93
2023-05-21T12:13:42.528Z,29.06
2023-05-21T12:16:45.449Z,29.65
2023-05-21T12:19:49.364Z,30.23
2023-05-21T12:22:52.358Z,29.79
2023-05-21T12:25:55.192Z,29.00
2023-05-21T12:28:58.025Z,29.57
2023-05-21T12:32:01.571Z,29.53
2023-05-21T12:35:04.822Z,29.45
2023-05-21T12:38:09.708Z,29.88
2023-05-21T12:41:12.693Z,29.89
2023-05-21T12:44:15.229Z,29.87
2023-05-21T12:47:18.461Z,29.77
2023-05-21T12:50:21.585Z,29.36
2023-05-21T12:53:24.435Z,29.53
2023-05-21T12:56:27.216Z,29.95
2023-05-21T12:59:45.693Z,29.99
2023-05-21T13:02:48.284Z,29.83
2023-05-21T13:05:59.327Z,30.04
2023-05-21T13:09:01.883Z,29.45
2023-05-21T13:12:05.350Z,29.37
2023-05-21T13:15:08.289Z,29.79
2023-05-21T13:18:12.464Z,29.83
2023-05-21T13:21:15.105Z,29.75
2023-05-21T13:24:17.971Z,29.03
2023-05-21T13:27:21.187Z,28.58
2023-05-21T13:30:24.150Z,28.66
2023-05-21T13:33:26.843Z,28.46
2023-05-21T13:36:29.858Z,28.16
2023-05-21T13:39:32.449Z,27.89
2023-05-21T13:42:35.639Z,27.82
2023-05-21T13:45:38.943Z,27.88
2023-05-21T13:48:43.304Z,27.94
2023-05-21T13:51:45.946Z,27.96
2023-05-21T13:54:48.799Z,27.88
2023-05-21T13:57:51.455Z,27.55
2023-05-21T14:00:54.608Z,27.72
2023-05-21T14:03:57.942Z,27.72
2023-05-21T14:07:00.990Z,27.85
2023-05-21T14:10:04.284Z,28.00
2023-05-21T14:13:18.453Z,28.06
2023-05-21T14:16:24.903Z,27.72
2023-05-21T14:19:27.748Z,27.88
2023-05-21T14:22:31.118Z,27.90
2023-05-21T14:25:33.752Z,27.82
2023-05-21T14:28:36.922Z,27.75
2023-05-21T14:31:39.609Z,27.70
2023-05-21T14:34:42.547Z,27.41
2023-05-21T14:37:45.023Z,27.61
2023-05-21T14:40:47.929Z,27.78
2023-05-21T14:43:50.706Z,27.59
2023-05-21T14:46:53.661Z,27.48
2023-05-21T14:49:56.268Z,27.27
2023-05-21T14:52:59.045Z,27.30
2023-05-21T14:56:01.721Z,27.22
2023-05-21T14:59:04.815Z,27.14
2023-05-21T15:02:07.403Z,27.01
2023-05-21T15:05:10.441Z,26.94
2023-05-21T15:08:13.038Z,26.81
2023-05-21T15:11:15.950Z,26.73
2023-05-21T15:14:19.493Z,26.63
2023-05-21T15:17:22.362Z,26.30
2023-05-21T15:20:25.121Z,26.10
2023-05-21T15:23:28.039Z,25.89
2023-05-21T15:26:30.591Z,25.79
2023-05-21T15:29:33.558Z,25.78
2023-05-21T15:32:36.398Z,25.71
2023-05-21T15:35:39.726Z,25.47
2023-05-21T15:38:42.578Z,25.56
2023-05-21T15:41:45.646Z,25.44
2023-05-21T15:44:48.197Z,25.26
2023-05-21T15:47:51.157Z,25.22
2023-05-21T15:50:54.409Z,25.02
2023-05-21T15:53:57.413Z,24.98
2023-05-21T15:57:00.095Z,24.89
2023-05-21T16:00:03.955Z,24.88
2023-05-21T16:03:12.674Z,24.83
2023-05-21T16:06:15.664Z,24.79
2023-05-21T16:09:18.323Z,24.75
2023-05-21T16:12:21.303Z,24.72
2023-05-21T16:15:23.885Z,24.47
2023-05-21T16:18:26.776Z,24.50
2023-05-21T16:21:29.265Z,24.42
2023-05-21T16:24:32.129Z,24.33
2023-05-21T16:27:35.618Z,24.33
2023-05-21T16:30:38.650Z,24.21
2023-05-21T16:33:41.461Z,24.14
2023-05-21T16:36:44.367Z,24.07
2023-05-21T16:39:46.949Z,24.02
2023-05-21T16:42:49.900Z,23.96
2023-05-21T16:45:53.549Z,23.88
2023-05-21T16:48:56.527Z,23.79
2023-05-21T16:51:59.220Z,23.75
2023-05-21T16:55:02.453Z,23.66
2023-05-21T16:58:05.938Z,23.69
2023-05-21T17:01:08.844Z,23.61
2023-05-21T17:04:11.772Z,23.61
2023-05-21T17:07:15.610Z,23.53
2023-05-21T17:10:19.572Z,23.47
2023-05-21T17:13:23.405Z,23.40
2023-05-21T17:16:26.737Z,23.38
2023-05-21T17:19:29.778Z,23.33
2023-05-21T17:22:32.569Z,23.24
2023-05-21T17:25:35.735Z,23.19
2023-05-21T17:28:38.547Z,23.13
2023-05-21T17:31:41.597Z,23.09
2023-05-21T17:34:44.259Z,23.01
2023-05-21T17:37:48.075Z,22.95
2023-05-21T17:40:50.732Z,22.88
2023-05-21T17:43:53.648Z,22.82
2023-05-21T17:46:56.698Z,22.78
2023-05-21T17:49:59.783Z,22.71
2023-05-21T17:53:02.398Z,22.64
2023-05-21T17:56:06.343Z,22.54
2023-05-21T17:59:10.144Z,22.43
2023-05-21T18:02:13.733Z,22.35
2023-05-21T18:05:16.693Z,22.31
2023-05-21T18:08:19.549Z,22.15
2023-05-21T18:11:23.053Z,22.07
2023-05-21T18:14:25.621Z,21.91
2023-05-21T18:17:28.458Z,21.81
2023-05-21T18:20:31.346Z,21.72
2023-05-21T18:23:34.183Z,21.64
2023-05-21T18:26:36.855Z,21.55
2023-05-21T18:29:39.780Z,21.48
2023-05-21T18:32:44.213Z,21.38
2023-05-21T18:35:47.297Z,21.33
2023-05-21T18:38:50.083Z,21.23
2023-05-21T18:42:01.536Z,21.16
2023-05-21T18:45:14.746Z,21.03
2023-05-21T18:48:18.016Z,21.15
2023-05-21T18:51:20.751Z,21.17
2023-05-21T18:54:24.213Z,20.91
2023-05-21T18:57:26.832Z,21.07
2023-05-21T19:00:30.117Z,21.00
2023-05-21T19:03:32.675Z,20.99
2023-05-21T19:06:36.176Z,20.98
2023-05-21T19:09:38.869Z,20.87
2023-05-21T19:12:43.458Z,20.77
2023-05-21T19:15:48.097Z,20.67
2023-05-21T19:18:51.080Z,20.63
2023-05-21T19:21:54.063Z,20.66
2023-05-21T19:24:57.053Z,20.61
2023-05-21T19:28:00.817Z,20.59
2023-05-21T19:31:03.942Z,20.61
2023-05-21T19:34:10.478Z,20.51
2023-05-21T19:37:13.876Z,20.52
2023-05-21T19:40:17.768Z,20.48
2023-05-21T19:43:21.198Z,20.43
2023-05-21T19:46:23.933Z,20.36
2023-05-21T19:49:26.981Z,20.39
2023-05-21T19:52:29.643Z,20.41
2023-05-21T19:55:35.406Z,20.29
2023-05-21T19:58:37.924Z,20.31
2023-05-21T20:01:43.260Z,20.25
2023-05-21T20:04:46.149Z,20.21
2023-05-21T20:07:48.845Z,20.17
2023-05-21T20:10:52.120Z,20.02
2023-05-21T20:13:54.820Z,19.95
2023-05-21T20:16:58.805Z,19.91
2023-05-21T20:20:03.701Z,19.85
2023-05-21T20:23:06.684Z,19.85
2023-05-21T20:26:09.401Z,19.78
2023-05-21T20:29:12.335Z,19.94
2023-05-21T20:32:14.918Z,19.95
2023-05-21T20:35:18.077Z,19.93
2023-05-21T20:38:21.019Z,19.96
2023-05-21T20:41:25.467Z,19.93
2023-05-21T20:44:29.327Z,19.89
2023-05-21T20:47:33.918Z,19.87
2023-05-21T20:50:37.392Z,19.82
2023-05-21T20:53:40.862Z,19.70
2023-05-21T20:56:44.944Z,19.61
2023-05-21T20:59:48.760Z,19.42
2023-05-21T21:02:51.503Z,19.32
2023-05-21T21:05:56.399Z,19.08
2023-05-21T21:08:59.077Z,19.12
2023-05-21T21:12:11.378Z,19.07
2023-05-21T21:15:24.269Z,18.77
2023-05-21T21:18:27.290Z,18.69
2023-05-21T21:21:29.995Z,18.34
2023-05-21T21:24:33.061Z,18.42
2023-05-21T21:27:36.281Z,18.42
2023-05-21T21:30:41.180Z,18.33
2023-05-21T21:33:44.012Z,18.30
2023-05-21T21:36:47.155Z,18.26
2023-05-21T21:39:49.837Z,18.19
2023-05-21T21:42:53.173Z,18.15
2023-05-21T21:45:55.862Z,18.08
2023-05-21T21:48:59.064Z,18.04
2023-05-21T21:52:01.898Z,18.02
2023-05-21T21:55:05.148Z,17.96
2023-05-21T21:58:07.658Z,17.91
2023-05-21T22:01:10.569Z,17.84
2023-05-21T22:04:13.490Z,17.77
2023-05-21T22:07:18.266Z,17.75
2023-05-21T22:10:21.309Z,17.70
2023-05-21T22:13:24.572Z,17.67
2023-05-21T22:16:28.364Z,17.64
2023-05-21T22:19:32.930Z,17.47
2023-05-21T22:22:35.784Z,17.53
2023-05-21T22:25:38.596Z,17.51
2023-05-21T22:28:42.169Z,17.49
2023-05-21T22:31:44.797Z,17.51
2023-05-21T22:34:47.824Z,17.52
2023-05-21T22:37:50.364Z,17.56
2023-05-21T22:40:53.335Z,17.61
2023-05-21T22:43:56.239Z,17.62
2023-05-21T22:47:00.320Z,17.66
2023-05-21T22:50:04.530Z,17.60
2023-05-21T22:53:07.394Z,17.55
2023-05-21T22:56:09.958Z,17.75
2023-05-21T22:59:13.566Z,17.73
2023-05-21T23:02:16.608Z,17.70
2023-05-21T23:05:19.555Z,17.68
2023-05-21T23:08:22.215Z,17.64
2023-05-21T23:11:25.133Z,17.58
2023-05-21T23:14:27.716Z,17.48
2023-05-21T23:17:30.821Z,17.34
2023-05-21T23:20:33.768Z,17.26
2023-05-21T23:23:36.768Z,17.17
2023-05-21T23:26:39.344Z,17.09
2023-05-21T23:29:42.266Z,17.02
2023-05-21T23:32:44.867Z,16.99
2023-05-21T23:35:47.791Z,16.91
2023-05-21T23:38:50.478Z,16.84
2023-05-21T23:41:53.270Z,16.83
2023-05-21T23:44:56.092Z,16.74
2023-05-21T23:47:58.970Z,16.71
2023-05-21T23:51:01.557Z,16.76
2023-05-21T23:54:04.518Z,16.77
2023-05-21T23:57:07.236Z,16.70
